sensor_id;sensor_type;location;lat;lon;timestamp;temperature;humidity
21331;DHT22;10824;51.632;4.950;2022-11-20T00:00:23;0.70;99.00
21331;DHT22;10824;51.632;4.950;2022-11-20T00:02:50;0.70;99.40
21331;DHT22;10824;51.632;4.950;2022-11-20T00:05:17;0.70;99.10
21331;DHT22;10824;51.632;4.950;2022-11-20T00:07:44;0.60;98.70
21331;DHT22;10824;51.632;4.950;2022-11-20T00:10:12;0.60;99.50
21331;DHT22;10824;51.632;4.950;2022-11-20T00:12:39;0.70;99.70
21331;DHT22;10824;51.632;4.950;2022-11-20T00:15:06;0.70;99.20
21331;DHT22;10824;51.632;4.950;2022-11-20T00:17:33;0.70;99.60
21331;DHT22;10824;51.632;4.950;2022-11-20T00:20:00;0.60;99.70
21331;DHT22;10824;51.632;4.950;2022-11-20T00:22:27;0.60;99.90
21331;DHT22;10824;51.632;4.950;2022-11-20T00:24:54;0.50;99.60
21331;DHT22;10824;51.632;4.950;2022-11-20T00:27:23;0.50;99.70
21331;DHT22;10824;51.632;4.950;2022-11-20T00:29:50;0.40;99.40
21331;DHT22;10824;51.632;4.950;2022-11-20T00:32:17;0.50;99.70
21331;DHT22;10824;51.632;4.950;2022-11-20T00:34:44;0.40;99.90
21331;DHT22;10824;51.632;4.950;2022-11-20T00:37:11;0.40;99.90
21331;DHT22;10824;51.632;4.950;2022-11-20T00:39:38;0.30;99.70
21331;DHT22;10824;51.632;4.950;2022-11-20T00:42:05;0.30;99.90
21331;DHT22;10824;51.632;4.950;2022-11-20T00:44:32;0.30;99.90
21331;DHT22;10824;51.632;4.950;2022-11-20T00:46:59;0.30;99.90
21331;DHT22;10824;51.632;4.950;2022-11-20T00:49:26;0.30;99.90
21331;DHT22;10824;51.632;4.950;2022-11-20T00:51:53;0.30;99.90
21331;DHT22;10824;51.632;4.950;2022-11-20T00:54:20;0.30;99.90
21331;DHT22;10824;51.632;4.950;2022-11-20T00:56:47;0.20;99.90
21331;DHT22;10824;51.632;4.950;2022-11-20T00:59:14;0.20;99.90
21331;DHT22;10824;51.632;4.950;2022-11-20T01:01:41;0.30;99.90
21331;DHT22;10824;51.632;4.950;2022-11-20T01:04:08;0.30;99.90
21331;DHT22;10824;51.632;4.950;2022-11-20T01:06:37;0.30;99.90
21331;DHT22;10824;51.632;4.950;2022-11-20T01:09:12;0.20;99.90
21331;DHT22;10824;51.632;4.950;2022-11-20T01:11:42;0.20;99.90
21331;DHT22;10824;51.632;4.950;2022-11-20T01:14:15;0.10;99.90
21331;DHT22;10824;51.632;4.950;2022-11-20T01:16:48;0.10;99.90
21331;DHT22;10824;51.632;4.950;2022-11-20T01:19:20;0.10;99.90
21331;DHT22;10824;51.632;4.950;2022-11-20T01:21:50;0.10;99.90
21331;DHT22;10824;51.632;4.950;2022-11-20T01:24:19;0.20;99.90
21331;DHT22;10824;51.632;4.950;2022-11-20T01:26:48;0.20;99.90
21331;DHT22;10824;51.632;4.950;2022-11-20T01:29:21;0.20;99.90
21331;DHT22;10824;51.632;4.950;2022-11-20T01:31:49;0.20;99.90
21331;DHT22;10824;51.632;4.950;2022-11-20T01:34:18;0.20;99.90
21331;DHT22;10824;51.632;4.950;2022-11-20T01:36:46;0.10;99.90
21331;DHT22;10824;51.632;4.950;2022-11-20T01:39:15;0.20;99.90
21331;DHT22;10824;51.632;4.950;2022-11-20T01:41:44;0.10;99.90
21331;DHT22;10824;51.632;4.950;2022-11-20T01:44:54;0.00;99.90
21331;DHT22;10824;51.632;4.950;2022-11-20T01:47:29;0.00;99.90
21331;DHT22;10824;51.632;4.950;2022-11-20T01:50:04;0.00;99.90
21331;DHT22;10824;51.632;4.950;2022-11-20T01:52:39;-0.10;99.90
21331;DHT22;10824;51.632;4.950;2022-11-20T01:55:13;-0.10;99.90
21331;DHT22;10824;51.632;4.950;2022-11-20T01:57:41;-0.10;99.90
21331;DHT22;10824;51.632;4.950;2022-11-20T02:00:13;0.00;99.90
21331;DHT22;10824;51.632;4.950;2022-11-20T02:03:02;0.00;99.90
21331;DHT22;10824;51.632;4.950;2022-11-20T02:05:51;0.00;99.90
21331;DHT22;10824;51.632;4.950;2022-11-20T02:08:19;0.00;99.90
21331;DHT22;10824;51.632;4.950;2022-11-20T02:10:48;0.00;99.90
21331;DHT22;10824;51.632;4.950;2022-11-20T02:13:15;0.10;99.90
21331;DHT22;10824;51.632;4.950;2022-11-20T02:16:02;0.10;99.90
21331;DHT22;10824;51.632;4.950;2022-11-20T02:18:30;0.10;99.90
21331;DHT22;10824;51.632;4.950;2022-11-20T02:21:04;0.30;99.90
21331;DHT22;10824;51.632;4.950;2022-11-20T02:26:04;0.40;99.90
21331;DHT22;10824;51.632;4.950;2022-11-20T02:28:32;0.30;99.90
21331;DHT22;10824;51.632;4.950;2022-11-20T02:31:00;0.30;99.90
21331;DHT22;10824;51.632;4.950;2022-11-20T02:33:27;0.20;99.90
21331;DHT22;10824;51.632;4.950;2022-11-20T02:35:54;0.30;99.90
21331;DHT22;10824;51.632;4.950;2022-11-20T02:38:21;0.30;99.90
21331;DHT22;10824;51.632;4.950;2022-11-20T02:40:48;0.40;99.90
21331;DHT22;10824;51.632;4.950;2022-11-20T02:43:21;0.30;99.90
21331;DHT22;10824;51.632;4.950;2022-11-20T02:45:49;0.40;99.90
21331;DHT22;10824;51.632;4.950;2022-11-20T02:48:16;0.40;99.90
21331;DHT22;10824;51.632;4.950;2022-11-20T02:50:43;0.40;99.90
21331;DHT22;10824;51.632;4.950;2022-11-20T02:53:10;0.40;99.90
21331;DHT22;10824;51.632;4.950;2022-11-20T02:55:37;0.40;99.90
21331;DHT22;10824;51.632;4.950;2022-11-20T02:58:04;0.50;99.90
21331;DHT22;10824;51.632;4.950;2022-11-20T03:00:31;0.40;99.90
21331;DHT22;10824;51.632;4.950;2022-11-20T03:02:58;0.50;99.90
21331;DHT22;10824;51.632;4.950;2022-11-20T03:05:25;0.50;99.90
21331;DHT22;10824;51.632;4.950;2022-11-20T03:07:52;0.50;99.90
21331;DHT22;10824;51.632;4.950;2022-11-20T03:10:19;0.50;99.90
21331;DHT22;10824;51.632;4.950;2022-11-20T03:12:46;0.50;99.90
21331;DHT22;10824;51.632;4.950;2022-11-20T03:15:13;0.60;99.90
21331;DHT22;10824;51.632;4.950;2022-11-20T03:17:40;0.50;99.90
21331;DHT22;10824;51.632;4.950;2022-11-20T03:20:08;0.50;99.90
21331;DHT22;10824;51.632;4.950;2022-11-20T03:22:35;0.50;99.70
21331;DHT22;10824;51.632;4.950;2022-11-20T03:25:03;0.40;99.90
21331;DHT22;10824;51.632;4.950;2022-11-20T03:27:34;0.40;99.90
21331;DHT22;10824;51.632;4.950;2022-11-20T03:30:01;0.50;99.90
21331;DHT22;10824;51.632;4.950;2022-11-20T03:32:28;0.50;99.90
21331;DHT22;10824;51.632;4.950;2022-11-20T03:34:55;0.50;99.40
21331;DHT22;10824;51.632;4.950;2022-11-20T03:37:22;0.50;99.50
21331;DHT22;10824;51.632;4.950;2022-11-20T03:39:49;0.50;99.90
21331;DHT22;10824;51.632;4.950;2022-11-20T03:42:16;0.50;99.90
21331;DHT22;10824;51.632;4.950;2022-11-20T03:45:02;0.50;99.90
21331;DHT22;10824;51.632;4.950;2022-11-20T03:47:29;0.50;99.90
21331;DHT22;10824;51.632;4.950;2022-11-20T03:49:56;0.50;99.90
21331;DHT22;10824;51.632;4.950;2022-11-20T03:52:23;0.40;99.90
21331;DHT22;10824;51.632;4.950;2022-11-20T03:54:50;0.50;99.90
21331;DHT22;10824;51.632;4.950;2022-11-20T03:57:16;0.40;99.90
21331;DHT22;10824;51.632;4.950;2022-11-20T03:59:43;0.40;99.90
21331;DHT22;10824;51.632;4.950;2022-11-20T04:02:10;0.40;99.90
21331;DHT22;10824;51.632;4.950;2022-11-20T04:04:37;0.40;99.90
21331;DHT22;10824;51.632;4.950;2022-11-20T04:07:04;0.30;99.90
21331;DHT22;10824;51.632;4.950;2022-11-20T04:09:31;0.50;99.90
21331;DHT22;10824;51.632;4.950;2022-11-20T04:11:58;0.40;99.90
21331;DHT22;10824;51.632;4.950;2022-11-20T04:14:26;0.40;99.90
21331;DHT22;10824;51.632;4.950;2022-11-20T04:16:52;0.30;99.90
21331;DHT22;10824;51.632;4.950;2022-11-20T04:19:19;0.20;99.90
21331;DHT22;10824;51.632;4.950;2022-11-20T04:21:47;0.20;99.90
21331;DHT22;10824;51.632;4.950;2022-11-20T04:24:14;0.20;99.90
21331;DHT22;10824;51.632;4.950;2022-11-20T04:26:41;0.20;99.90
21331;DHT22;10824;51.632;4.950;2022-11-20T04:29:11;0.20;99.90
21331;DHT22;10824;51.632;4.950;2022-11-20T04:31:38;0.20;99.90
21331;DHT22;10824;51.632;4.950;2022-11-20T04:34:06;0.20;99.90
21331;DHT22;10824;51.632;4.950;2022-11-20T04:36:34;0.10;99.90
21331;DHT22;10824;51.632;4.950;2022-11-20T04:39:04;0.10;99.90
21331;DHT22;10824;51.632;4.950;2022-11-20T04:41:34;0.10;99.90
21331;DHT22;10824;51.632;4.950;2022-11-20T04:44:02;0.00;99.90
21331;DHT22;10824;51.632;4.950;2022-11-20T04:46:33;0.00;99.90
21331;DHT22;10824;51.632;4.950;2022-11-20T04:49:00;-0.10;99.90
21331;DHT22;10824;51.632;4.950;2022-11-20T04:51:28;-0.10;99.90
21331;DHT22;10824;51.632;4.950;2022-11-20T04:53:55;-0.10;99.90
21331;DHT22;10824;51.632;4.950;2022-11-20T04:56:22;-0.20;99.90
21331;DHT22;10824;51.632;4.950;2022-11-20T04:58:49;-0.10;99.90
21331;DHT22;10824;51.632;4.950;2022-11-20T05:01:19;-0.10;99.90
21331;DHT22;10824;51.632;4.950;2022-11-20T05:03:46;-0.10;99.90
21331;DHT22;10824;51.632;4.950;2022-11-20T05:06:15;-0.10;99.90
21331;DHT22;10824;51.632;4.950;2022-11-20T05:08:43;-0.20;99.90
21331;DHT22;10824;51.632;4.950;2022-11-20T05:11:12;-0.30;99.90
21331;DHT22;10824;51.632;4.950;2022-11-20T05:13:40;-0.30;99.90
21331;DHT22;10824;51.632;4.950;2022-11-20T05:16:10;-0.30;99.90
21331;DHT22;10824;51.632;4.950;2022-11-20T05:18:40;-0.30;99.90
21331;DHT22;10824;51.632;4.950;2022-11-20T05:21:08;-0.40;99.90
21331;DHT22;10824;51.632;4.950;2022-11-20T05:23:36;-0.40;99.90
21331;DHT22;10824;51.632;4.950;2022-11-20T05:26:04;-0.40;99.90
21331;DHT22;10824;51.632;4.950;2022-11-20T05:28:31;-0.40;99.90
21331;DHT22;10824;51.632;4.950;2022-11-20T05:31:18;-0.30;99.90
21331;DHT22;10824;51.632;4.950;2022-11-20T05:33:53;-0.40;99.90
21331;DHT22;10824;51.632;4.950;2022-11-20T05:36:20;-0.50;99.90
21331;DHT22;10824;51.632;4.950;2022-11-20T05:38:47;-0.50;99.90
21331;DHT22;10824;51.632;4.950;2022-11-20T05:41:19;-0.50;99.90
21331;DHT22;10824;51.632;4.950;2022-11-20T05:43:48;-0.50;99.90
21331;DHT22;10824;51.632;4.950;2022-11-20T05:46:17;-0.50;99.90
21331;DHT22;10824;51.632;4.950;2022-11-20T05:48:50;-0.50;99.90
21331;DHT22;10824;51.632;4.950;2022-11-20T05:51:18;-0.50;99.90
21331;DHT22;10824;51.632;4.950;2022-11-20T05:53:46;-0.50;99.90
21331;DHT22;10824;51.632;4.950;2022-11-20T05:56:19;-0.60;99.90
21331;DHT22;10824;51.632;4.950;2022-11-20T05:58:47;-0.50;99.90
21331;DHT22;10824;51.632;4.950;2022-11-20T06:01:23;-0.60;99.90
21331;DHT22;10824;51.632;4.950;2022-11-20T06:03:50;-0.60;99.90
21331;DHT22;10824;51.632;4.950;2022-11-20T06:06:18;-0.60;99.90
21331;DHT22;10824;51.632;4.950;2022-11-20T06:08:46;-0.60;99.90
21331;DHT22;10824;51.632;4.950;2022-11-20T06:11:14;-0.60;99.90
21331;DHT22;10824;51.632;4.950;2022-11-20T06:13:41;-0.70;99.90
21331;DHT22;10824;51.632;4.950;2022-11-20T06:16:09;-0.70;99.90
21331;DHT22;10824;51.632;4.950;2022-11-20T06:18:37;-0.60;99.90
21331;DHT22;10824;51.632;4.950;2022-11-20T06:21:13;-0.70;99.90
21331;DHT22;10824;51.632;4.950;2022-11-20T06:23:40;-0.70;99.90
21331;DHT22;10824;51.632;4.950;2022-11-20T06:26:10;-0.70;99.90
21331;DHT22;10824;51.632;4.950;2022-11-20T06:28:39;-0.70;99.90
21331;DHT22;10824;51.632;4.950;2022-11-20T06:31:07;-0.70;99.90
21331;DHT22;10824;51.632;4.950;2022-11-20T06:33:36;-0.60;99.90
21331;DHT22;10824;51.632;4.950;2022-11-20T06:36:04;-0.70;99.90
21331;DHT22;10824;51.632;4.950;2022-11-20T06:38:37;-0.70;99.90
21331;DHT22;10824;51.632;4.950;2022-11-20T06:41:05;-0.70;99.90
21331;DHT22;10824;51.632;4.950;2022-11-20T06:43:32;-0.60;99.90
21331;DHT22;10824;51.632;4.950;2022-11-20T06:45:59;-0.50;99.90
21331;DHT22;10824;51.632;4.950;2022-11-20T06:48:27;-0.50;99.90
21331;DHT22;10824;51.632;4.950;2022-11-20T06:50:56;-0.50;99.90
21331;DHT22;10824;51.632;4.950;2022-11-20T06:53:23;-0.60;99.90
21331;DHT22;10824;51.632;4.950;2022-11-20T06:55:51;-0.70;99.90
21331;DHT22;10824;51.632;4.950;2022-11-20T06:58:18;-0.70;99.90
21331;DHT22;10824;51.632;4.950;2022-11-20T07:00:45;-0.70;99.90
21331;DHT22;10824;51.632;4.950;2022-11-20T07:03:13;-0.70;99.90
21331;DHT22;10824;51.632;4.950;2022-11-20T07:05:40;-0.70;99.90
21331;DHT22;10824;51.632;4.950;2022-11-20T07:08:07;-0.70;99.90
21331;DHT22;10824;51.632;4.950;2022-11-20T07:10:35;-0.60;99.90
21331;DHT22;10824;51.632;4.950;2022-11-20T07:13:03;-0.60;99.90
21331;DHT22;10824;51.632;4.950;2022-11-20T07:15:30;-0.70;99.90
21331;DHT22;10824;51.632;4.950;2022-11-20T07:18:01;-0.70;99.90
21331;DHT22;10824;51.632;4.950;2022-11-20T07:20:31;-0.70;99.90
21331;DHT22;10824;51.632;4.950;2022-11-20T07:22:58;-0.60;99.90
21331;DHT22;10824;51.632;4.950;2022-11-20T07:25:27;-0.60;99.90
21331;DHT22;10824;51.632;4.950;2022-11-20T07:28:01;-0.50;99.90
21331;DHT22;10824;51.632;4.950;2022-11-20T07:30:28;-0.50;99.90
21331;DHT22;10824;51.632;4.950;2022-11-20T07:32:56;-0.50;99.90
21331;DHT22;10824;51.632;4.950;2022-11-20T07:35:24;-0.40;99.90
21331;DHT22;10824;51.632;4.950;2022-11-20T07:37:52;-0.40;99.90
21331;DHT22;10824;51.632;4.950;2022-11-20T07:40:19;-0.40;99.90
21331;DHT22;10824;51.632;4.950;2022-11-20T07:42:54;-0.40;99.90
21331;DHT22;10824;51.632;4.950;2022-11-20T07:45:23;-0.30;99.90
21331;DHT22;10824;51.632;4.950;2022-11-20T07:47:51;-0.20;99.90
21331;DHT22;10824;51.632;4.950;2022-11-20T07:50:18;-0.20;99.90
21331;DHT22;10824;51.632;4.950;2022-11-20T07:52:46;-0.30;99.90
21331;DHT22;10824;51.632;4.950;2022-11-20T07:55:14;-0.20;99.90
21331;DHT22;10824;51.632;4.950;2022-11-20T07:57:41;-0.20;99.90
21331;DHT22;10824;51.632;4.950;2022-11-20T08:00:10;-0.20;99.90
21331;DHT22;10824;51.632;4.950;2022-11-20T08:02:40;-0.20;99.90
21331;DHT22;10824;51.632;4.950;2022-11-20T08:05:09;-0.10;99.90
21331;DHT22;10824;51.632;4.950;2022-11-20T08:07:40;-0.10;99.90
21331;DHT22;10824;51.632;4.950;2022-11-20T08:10:09;-0.10;99.90
21331;DHT22;10824;51.632;4.950;2022-11-20T08:12:44;0.00;99.90
21331;DHT22;10824;51.632;4.950;2022-11-20T08:15:30;0.00;99.90
21331;DHT22;10824;51.632;4.950;2022-11-20T08:18:10;0.10;99.90
21331;DHT22;10824;51.632;4.950;2022-11-20T08:21:02;0.10;99.90
21331;DHT22;10824;51.632;4.950;2022-11-20T08:23:29;0.30;99.90
21331;DHT22;10824;51.632;4.950;2022-11-20T08:25:56;0.40;99.90
21331;DHT22;10824;51.632;4.950;2022-11-20T08:28:22;0.30;99.90
21331;DHT22;10824;51.632;4.950;2022-11-20T08:30:50;0.40;99.90
21331;DHT22;10824;51.632;4.950;2022-11-20T08:33:18;0.40;99.90
21331;DHT22;10824;51.632;4.950;2022-11-20T08:35:45;0.50;99.90
21331;DHT22;10824;51.632;4.950;2022-11-20T08:38:12;0.60;99.90
21331;DHT22;10824;51.632;4.950;2022-11-20T08:40:39;0.60;99.90
21331;DHT22;10824;51.632;4.950;2022-11-20T08:43:06;0.70;99.90
21331;DHT22;10824;51.632;4.950;2022-11-20T08:45:33;0.70;99.90
21331;DHT22;10824;51.632;4.950;2022-11-20T08:48:02;0.70;99.90
21331;DHT22;10824;51.632;4.950;2022-11-20T08:50:30;0.70;99.90
21331;DHT22;10824;51.632;4.950;2022-11-20T08:53:03;0.80;99.90
21331;DHT22;10824;51.632;4.950;2022-11-20T08:55:31;0.90;99.90
21331;DHT22;10824;51.632;4.950;2022-11-20T08:57:58;0.90;99.90
21331;DHT22;10824;51.632;4.950;2022-11-20T09:00:25;0.90;99.90
21331;DHT22;10824;51.632;4.950;2022-11-20T09:02:52;0.90;99.90
21331;DHT22;10824;51.632;4.950;2022-11-20T09:05:19;0.90;99.90
21331;DHT22;10824;51.632;4.950;2022-11-20T09:07:46;1.00;99.90
21331;DHT22;10824;51.632;4.950;2022-11-20T09:10:13;1.10;99.90
21331;DHT22;10824;51.632;4.950;2022-11-20T09:12:51;1.10;99.90
21331;DHT22;10824;51.632;4.950;2022-11-20T09:15:19;1.10;99.90
21331;DHT22;10824;51.632;4.950;2022-11-20T09:17:57;1.20;99.90
21331;DHT22;10824;51.632;4.950;2022-11-20T09:20:25;1.20;99.90
21331;DHT22;10824;51.632;4.950;2022-11-20T09:22:52;1.30;99.90
21331;DHT22;10824;51.632;4.950;2022-11-20T09:25:20;1.30;99.90
21331;DHT22;10824;51.632;4.950;2022-11-20T09:27:47;1.40;99.90
21331;DHT22;10824;51.632;4.950;2022-11-20T09:30:14;1.40;99.90
21331;DHT22;10824;51.632;4.950;2022-11-20T09:32:44;1.50;99.90
21331;DHT22;10824;51.632;4.950;2022-11-20T09:35:11;1.60;99.90
21331;DHT22;10824;51.632;4.950;2022-11-20T09:37:38;1.60;99.90
21331;DHT22;10824;51.632;4.950;2022-11-20T09:40:06;1.60;99.90
21331;DHT22;10824;51.632;4.950;2022-11-20T09:43:06;1.70;99.90
21331;DHT22;10824;51.632;4.950;2022-11-20T09:54:33;1.90;99.90
21331;DHT22;10824;51.632;4.950;2022-11-20T09:57:03;2.00;99.90
21331;DHT22;10824;51.632;4.950;2022-11-20T10:05:10;2.20;99.90
21331;DHT22;10824;51.632;4.950;2022-11-20T10:08:15;2.20;99.90
21331;DHT22;10824;51.632;4.950;2022-11-20T10:10:46;2.20;99.90
21331;DHT22;10824;51.632;4.950;2022-11-20T10:13:34;2.30;99.90
21331;DHT22;10824;51.632;4.950;2022-11-20T10:26:40;2.50;99.90
21331;DHT22;10824;51.632;4.950;2022-11-20T10:29:17;2.50;99.90
21331;DHT22;10824;51.632;4.950;2022-11-20T10:31:54;2.60;99.90
21331;DHT22;10824;51.632;4.950;2022-11-20T10:37:25;2.60;99.90
21331;DHT22;10824;51.632;4.950;2022-11-20T10:42:41;2.80;99.90
21331;DHT22;10824;51.632;4.950;2022-11-20T10:48:22;2.90;99.90
21331;DHT22;10824;51.632;4.950;2022-11-20T11:01:54;3.20;99.90
21331;DHT22;10824;51.632;4.950;2022-11-20T11:07:12;3.20;99.90
21331;DHT22;10824;51.632;4.950;2022-11-20T11:09:44;3.30;99.90
21331;DHT22;10824;51.632;4.950;2022-11-20T11:12:13;3.30;99.90
21331;DHT22;10824;51.632;4.950;2022-11-20T11:14:46;3.40;99.90
21331;DHT22;10824;51.632;4.950;2022-11-20T11:17:26;3.40;99.90
21331;DHT22;10824;51.632;4.950;2022-11-20T11:22:31;3.40;99.90
21331;DHT22;10824;51.632;4.950;2022-11-20T11:24:59;3.40;99.90
21331;DHT22;10824;51.632;4.950;2022-11-20T11:27:26;3.50;99.90
21331;DHT22;10824;51.632;4.950;2022-11-20T11:30:15;3.50;99.90
21331;DHT22;10824;51.632;4.950;2022-11-20T11:32:43;3.50;99.90
21331;DHT22;10824;51.632;4.950;2022-11-20T11:35:22;3.50;99.90
21331;DHT22;10824;51.632;4.950;2022-11-20T11:37:50;3.50;99.90
21331;DHT22;10824;51.632;4.950;2022-11-20T11:40:18;3.60;99.90
21331;DHT22;10824;51.632;4.950;2022-11-20T11:42:59;3.60;99.90
21331;DHT22;10824;51.632;4.950;2022-11-20T11:45:27;3.60;99.90
21331;DHT22;10824;51.632;4.950;2022-11-20T11:47:56;3.70;99.90
21331;DHT22;10824;51.632;4.950;2022-11-20T11:50:29;3.70;99.90
21331;DHT22;10824;51.632;4.950;2022-11-20T11:53:14;3.80;99.90
21331;DHT22;10824;51.632;4.950;2022-11-20T11:56:00;3.80;99.90
21331;DHT22;10824;51.632;4.950;2022-11-20T11:58:47;3.90;99.90
21331;DHT22;10824;51.632;4.950;2022-11-20T12:03:59;4.00;99.90
21331;DHT22;10824;51.632;4.950;2022-11-20T12:06:28;4.00;99.90
21331;DHT22;10824;51.632;4.950;2022-11-20T12:09:10;4.00;99.90
21331;DHT22;10824;51.632;4.950;2022-11-20T12:11:55;4.00;99.90
21331;DHT22;10824;51.632;4.950;2022-11-20T12:14:37;4.10;99.90
21331;DHT22;10824;51.632;4.950;2022-11-20T12:17:07;4.10;99.90
21331;DHT22;10824;51.632;4.950;2022-11-20T12:19:36;4.10;99.90
21331;DHT22;10824;51.632;4.950;2022-11-20T12:30:16;4.30;99.90
21331;DHT22;10824;51.632;4.950;2022-11-20T12:39:08;4.40;99.90
21331;DHT22;10824;51.632;4.950;2022-11-20T12:42:08;4.60;99.90
21331;DHT22;10824;51.632;4.950;2022-11-20T12:50:30;4.60;99.90
21331;DHT22;10824;51.632;4.950;2022-11-20T13:01:58;4.80;99.90
21331;DHT22;10824;51.632;4.950;2022-11-20T13:07:11;4.70;99.90
21331;DHT22;10824;51.632;4.950;2022-11-20T13:09:45;4.80;99.90
21331;DHT22;10824;51.632;4.950;2022-11-20T13:15:28;4.80;99.90
21331;DHT22;10824;51.632;4.950;2022-11-20T13:18:00;4.80;99.90
21331;DHT22;10824;51.632;4.950;2022-11-20T13:20:29;4.90;99.90
21331;DHT22;10824;51.632;4.950;2022-11-20T13:22:57;4.90;99.90
21331;DHT22;10824;51.632;4.950;2022-11-20T13:25:36;4.90;99.90
21331;DHT22;10824;51.632;4.950;2022-11-20T13:28:26;4.90;99.90
21331;DHT22;10824;51.632;4.950;2022-11-20T13:30:56;4.90;99.90
21331;DHT22;10824;51.632;4.950;2022-11-20T13:33:37;5.00;99.90
21331;DHT22;10824;51.632;4.950;2022-11-20T13:36:07;5.00;99.90
21331;DHT22;10824;51.632;4.950;2022-11-20T13:38:44;5.00;99.90
21331;DHT22;10824;51.632;4.950;2022-11-20T13:41:24;5.00;99.90
21331;DHT22;10824;51.632;4.950;2022-11-20T13:46:41;5.00;99.90
21331;DHT22;10824;51.632;4.950;2022-11-20T13:51:51;5.10;99.90
21331;DHT22;10824;51.632;4.950;2022-11-20T13:54:43;5.00;99.90
21331;DHT22;10824;51.632;4.950;2022-11-20T14:00:19;5.00;99.90
21331;DHT22;10824;51.632;4.950;2022-11-20T14:05:38;5.00;99.90
21331;DHT22;10824;51.632;4.950;2022-11-20T14:08:13;5.10;99.90
21331;DHT22;10824;51.632;4.950;2022-11-20T14:10:42;5.10;99.90
21331;DHT22;10824;51.632;4.950;2022-11-20T14:13:15;5.10;99.90
21331;DHT22;10824;51.632;4.950;2022-11-20T14:15:44;5.00;99.90
21331;DHT22;10824;51.632;4.950;2022-11-20T14:18:19;5.10;99.90
21331;DHT22;10824;51.632;4.950;2022-11-20T14:20:48;5.10;99.90
21331;DHT22;10824;51.632;4.950;2022-11-20T14:23:25;5.10;99.90
21331;DHT22;10824;51.632;4.950;2022-11-20T14:25:56;5.10;99.90
21331;DHT22;10824;51.632;4.950;2022-11-20T14:28:29;5.10;99.90
21331;DHT22;10824;51.632;4.950;2022-11-20T14:30:57;5.10;99.90
21331;DHT22;10824;51.632;4.950;2022-11-20T14:33:26;5.10;99.90
21331;DHT22;10824;51.632;4.950;2022-11-20T14:35:56;5.10;99.90
21331;DHT22;10824;51.632;4.950;2022-11-20T14:38:26;5.10;99.90
21331;DHT22;10824;51.632;4.950;2022-11-20T14:40:54;5.10;99.90
21331;DHT22;10824;51.632;4.950;2022-11-20T14:43:27;5.10;99.90
21331;DHT22;10824;51.632;4.950;2022-11-20T14:45:58;5.10;99.90
21331;DHT22;10824;51.632;4.950;2022-11-20T14:48:38;5.10;99.90
21331;DHT22;10824;51.632;4.950;2022-11-20T14:51:10;5.10;99.90
21331;DHT22;10824;51.632;4.950;2022-11-20T14:53:37;5.20;99.90
21331;DHT22;10824;51.632;4.950;2022-11-20T14:56:05;5.20;99.90
21331;DHT22;10824;51.632;4.950;2022-11-20T14:58:33;5.30;99.90
21331;DHT22;10824;51.632;4.950;2022-11-20T15:01:03;5.40;99.90
21331;DHT22;10824;51.632;4.950;2022-11-20T15:05:59;5.40;99.90
21331;DHT22;10824;51.632;4.950;2022-11-20T15:08:27;5.50;99.90
21331;DHT22;10824;51.632;4.950;2022-11-20T15:11:02;5.50;99.90
21331;DHT22;10824;51.632;4.950;2022-11-20T15:13:39;5.40;99.90
21331;DHT22;10824;51.632;4.950;2022-11-20T15:16:19;5.40;99.90
21331;DHT22;10824;51.632;4.950;2022-11-20T15:18:47;5.40;99.90
21331;DHT22;10824;51.632;4.950;2022-11-20T15:21:19;5.50;99.90
21331;DHT22;10824;51.632;4.950;2022-11-20T15:23:48;5.40;99.90
21331;DHT22;10824;51.632;4.950;2022-11-20T15:26:25;5.50;99.90
21331;DHT22;10824;51.632;4.950;2022-11-20T15:28:53;5.50;99.90
21331;DHT22;10824;51.632;4.950;2022-11-20T15:31:22;5.50;99.90
21331;DHT22;10824;51.632;4.950;2022-11-20T15:33:50;5.60;99.90
21331;DHT22;10824;51.632;4.950;2022-11-20T15:36:18;5.60;99.90
21331;DHT22;10824;51.632;4.950;2022-11-20T15:38:45;5.60;99.90
21331;DHT22;10824;51.632;4.950;2022-11-20T15:41:12;5.60;99.90
21331;DHT22;10824;51.632;4.950;2022-11-20T15:43:41;5.70;99.90
21331;DHT22;10824;51.632;4.950;2022-11-20T15:46:16;5.70;99.90
21331;DHT22;10824;51.632;4.950;2022-11-20T15:48:50;5.70;99.90
21331;DHT22;10824;51.632;4.950;2022-11-20T15:51:46;5.70;99.90
21331;DHT22;10824;51.632;4.950;2022-11-20T15:54:19;5.80;99.90
21331;DHT22;10824;51.632;4.950;2022-11-20T15:56:48;5.80;99.90
21331;DHT22;10824;51.632;4.950;2022-11-20T15:59:16;5.70;99.90
21331;DHT22;10824;51.632;4.950;2022-11-20T16:01:43;5.80;99.90
21331;DHT22;10824;51.632;4.950;2022-11-20T16:04:15;5.80;99.90
21331;DHT22;10824;51.632;4.950;2022-11-20T16:06:43;5.80;99.90
21331;DHT22;10824;51.632;4.950;2022-11-20T16:09:10;5.90;99.90
21331;DHT22;10824;51.632;4.950;2022-11-20T16:11:38;6.00;99.90
21331;DHT22;10824;51.632;4.950;2022-11-20T16:14:05;6.00;99.90
21331;DHT22;10824;51.632;4.950;2022-11-20T16:16:52;6.00;99.90
21331;DHT22;10824;51.632;4.950;2022-11-20T16:19:19;6.10;99.90
21331;DHT22;10824;51.632;4.950;2022-11-20T16:21:47;6.00;99.90
21331;DHT22;10824;51.632;4.950;2022-11-20T16:24:14;6.10;99.90
21331;DHT22;10824;51.632;4.950;2022-11-20T16:26:42;6.10;99.90
21331;DHT22;10824;51.632;4.950;2022-11-20T16:29:09;6.20;99.90
21331;DHT22;10824;51.632;4.950;2022-11-20T16:31:37;6.20;99.90
21331;DHT22;10824;51.632;4.950;2022-11-20T16:34:07;6.20;99.90
21331;DHT22;10824;51.632;4.950;2022-11-20T16:36:49;6.30;99.90
21331;DHT22;10824;51.632;4.950;2022-11-20T16:39:16;6.30;99.90
21331;DHT22;10824;51.632;4.950;2022-11-20T16:41:49;6.40;99.90
21331;DHT22;10824;51.632;4.950;2022-11-20T16:44:16;6.40;99.90
21331;DHT22;10824;51.632;4.950;2022-11-20T16:46:43;6.50;99.90
21331;DHT22;10824;51.632;4.950;2022-11-20T16:49:13;6.50;99.90
21331;DHT22;10824;51.632;4.950;2022-11-20T16:51:40;6.60;99.90
21331;DHT22;10824;51.632;4.950;2022-11-20T16:54:09;6.70;99.90
21331;DHT22;10824;51.632;4.950;2022-11-20T16:56:36;6.80;99.90
21331;DHT22;10824;51.632;4.950;2022-11-20T16:59:03;6.80;99.90
21331;DHT22;10824;51.632;4.950;2022-11-20T17:01:31;7.00;99.90
21331;DHT22;10824;51.632;4.950;2022-11-20T17:04:02;7.20;99.90
21331;DHT22;10824;51.632;4.950;2022-11-20T17:06:38;7.30;99.90
21331;DHT22;10824;51.632;4.950;2022-11-20T17:09:06;7.30;99.90
21331;DHT22;10824;51.632;4.950;2022-11-20T17:11:36;7.40;99.90
21331;DHT22;10824;51.632;4.950;2022-11-20T17:14:04;7.50;99.90
21331;DHT22;10824;51.632;4.950;2022-11-20T17:16:34;7.40;99.90
21331;DHT22;10824;51.632;4.950;2022-11-20T17:19:04;7.40;99.90
21331;DHT22;10824;51.632;4.950;2022-11-20T17:21:33;7.40;99.90
21331;DHT22;10824;51.632;4.950;2022-11-20T17:24:05;7.30;99.90
21331;DHT22;10824;51.632;4.950;2022-11-20T17:26:33;7.40;99.90
21331;DHT22;10824;51.632;4.950;2022-11-20T17:31:36;7.40;99.90
21331;DHT22;10824;51.632;4.950;2022-11-20T17:34:06;7.30;99.90
21331;DHT22;10824;51.632;4.950;2022-11-20T17:36:33;7.30;99.90
21331;DHT22;10824;51.632;4.950;2022-11-20T17:39:00;7.30;99.90
21331;DHT22;10824;51.632;4.950;2022-11-20T17:41:28;7.30;99.90
21331;DHT22;10824;51.632;4.950;2022-11-20T17:43:57;7.40;99.90
21331;DHT22;10824;51.632;4.950;2022-11-20T17:46:28;7.30;99.90
21331;DHT22;10824;51.632;4.950;2022-11-20T17:48:55;7.20;99.90